Time;durP1;ratioP1;P1;durP2;ratioP2;P2;SDS_P1;SDS_P2;PMS_P1;PMS_P2;Temp;Humidity;BMP_temperature;BMP_pressure;BME280_temperature;BME280_humidity;BME280_pressure;Samples;Min_cycle;Max_cycle;Signal;HPM_P1;HPM_P2
2024/01/14 00:07:37;;;;;;;14.05;7.28;;;;;;;10.57;41.07;96607.09;6155570;23;20021;-25
2024/01/14 00:20:45;;;;;;;10.40;5.68;;;;;;;10.84;39.61;96598.72;6155864;23;20028;-25
2024/01/14 00:36:50;;;;;;;12.05;5.47;;;;;;;10.72;40.22;96556.75;6154394;23;20028;-25
2024/01/14 00:52:42;;;;;;;18.45;10.60;;;;;;;10.86;39.52;96553.72;6155373;23;20020;-25
2024/01/14 01:22:02;;;;;;;8.70;5.70;;;;;;;10.82;40.37;96527.84;6155704;23;20020;-25
2024/01/14 01:37:54;;;;;;;14.23;6.57;;;;;;;10.63;40.59;96508.50;6153815;23;20526;-25
2024/01/14 01:53:48;;;;;;;11.50;6.13;;;;;;;10.62;41.01;96507.00;6157326;23;20466;-25
2024/01/14 02:06:59;;;;;;;11.27;5.80;;;;;;;10.66;40.98;96483.25;6157101;23;20021;-25
2024/01/14 02:22:53;;;;;;;8.60;4.93;;;;;;;10.86;40.77;96475.03;6156645;23;20474;-30
2024/01/14 02:38:46;;;;;;;8.27;3.35;;;;;;;10.95;39.87;96466.28;6155464;23;20506;-25
2024/01/14 02:54:38;;;;;;;10.73;4.85;;;;;;;10.96;39.43;96455.00;6156323;23;20089;-25
2024/01/14 03:07:43;;;;;;;4.60;2.00;;;;;;;11.00;39.22;96458.34;6156859;23;20016;-25
2024/01/14 03:23:35;;;;;;;6.25;3.05;;;;;;;11.06;39.07;96420.63;6156549;23;20084;-25
2024/01/14 03:39:27;;;;;;;3.55;1.98;;;;;;;10.94;39.00;96410.47;6154818;23;20406;-25
2024/01/14 03:41:53;;;;;;;3.40;1.90;;;;;;;11.04;39.03;96421.03;6156614;23;20081;-25
2024/01/14 03:54:24;;;;;;;5.10;2.10;;;;;;;10.89;38.37;96411.75;6156001;23;20063;-25
2024/01/14 04:10:16;;;;;;;2.25;1.10;;;;;;;11.04;37.28;96396.63;6156080;23;20016;-25
2024/01/14 04:23:33;;;;;;;2.65;1.02;;;;;;;10.80;37.90;96387.19;6156106;23;20029;-25
2024/01/14 04:39:44;;;;;;;5.20;2.53;;;;;;;10.89;37.88;96392.75;6154268;23;20116;-25
2024/01/14 04:55:36;;;;;;;6.75;3.45;;;;;;;10.89;39.84;96381.91;6155367;23;20016;-25
2024/01/14 05:09:00;;;;;;;6.78;3.50;;;;;;;10.77;40.39;96388.81;6155691;23;20016;-25
2024/01/14 05:11:25;;;;;;;6.68;3.67;;;;;;;10.78;40.06;96384.16;6155518;23;20068;-25
2024/01/14 05:24:11;;;;;;;6.18;3.35;;;;;;;10.66;40.18;96398.41;6155025;23;20442;-25
2024/01/14 05:40:05;;;;;;;4.65;2.22;;;;;;;10.59;40.74;96391.25;6153945;23;20083;-25
2024/01/14 05:55:57;;;;;;;8.85;3.30;;;;;;;10.91;40.46;96403.94;6155113;23;20056;-25
2024/01/14 06:25:16;;;;;;;8.98;3.65;;;;;;;10.74;39.63;96399.78;6155515;23;20056;-25
2024/01/14 06:27:42;;;;;;;6.03;3.67;;;;;;;10.61;40.22;96397.00;6155226;23;20001;-24
2024/01/14 06:30:08;;;;;;;5.75;3.75;;;;;;;10.60;40.32;96398.19;6154980;23;20006;-25
2024/01/14 06:32:33;;;;;;;6.57;3.55;;;;;;;10.50;40.02;96396.53;6155282;23;20028;-25
2024/01/14 06:41:42;;;;;;;6.18;3.55;;;;;;;10.34;40.33;96389.16;6155668;23;20031;-25
2024/01/14 06:57:35;;;;;;;9.95;4.93;;;;;;;10.32;39.93;96393.47;6156406;23;20491;-24
2024/01/14 07:10:21;;;;;;;9.30;5.68;;;;;;;10.57;39.95;96379.28;6156718;23;20037;-25
2024/01/14 07:26:18;;;;;;;6.45;3.83;;;;;;;10.63;39.68;96383.75;6155983;23;20109;-25
2024/01/14 07:42:11;;;;;;;9.75;4.75;;;;;;;10.67;40.08;96375.53;6155082;23;20119;-25
2024/01/14 08:11:31;;;;;;;8.32;5.20;;;;;;;10.68;41.01;96380.53;6156126;23;20040;-25
2024/01/14 08:27:23;;;;;;;13.23;7.30;;;;;;;10.76;41.66;96376.44;6155851;23;20024;-25
2024/01/14 08:43:15;;;;;;;22.40;13.98;;;;;;;11.03;42.55;96378.81;6154174;23;20033;-25
2024/01/14 08:56:39;;;;;;;24.05;11.65;;;;;;;11.06;43.29;96388.81;6155590;23;20075;-25
2024/01/14 08:59:05;;;;;;;20.63;8.82;;;;;;;11.18;43.48;96384.59;6155388;23;20001;-25
2024/01/14 09:11:51;;;;;;;9.48;4.90;;;;;;;11.36;44.75;96379.44;6155358;23;20084;-25
2024/01/14 09:27:43;;;;;;;8.95;5.20;;;;;;;23.02;24.29;96376.13;6155166;23;20016;-25
2024/01/14 09:43:40;;;;;;;5.63;3.92;;;;;;;22.26;26.05;96378.63;6153618;23;20095;-25
2024/01/14 09:59:34;;;;;;;9.68;4.88;;;;;;;15.08;38.29;96376.09;6154844;23;20046;-25
2024/01/14 10:12:29;;;;;;;6.32;3.08;;;;;;;13.61;42.82;96368.06;6155302;23;20423;-25
2024/01/14 10:28:45;;;;;;;5.63;3.42;;;;;;;12.80;44.65;96330.97;6156989;23;20028;-25
2024/01/14 10:44:37;;;;;;;8.20;5.10;;;;;;;12.21;46.50;96303.44;6155531;23;20111;-25
2024/01/14 10:58:01;;;;;;;12.65;8.23;;;;;;;12.15;48.17;96296.28;6156933;23;20063;-25
2024/01/14 11:14:08;;;;;;;10.68;6.88;;;;;;;12.18;47.87;96285.28;6156087;23;20017;-25
2024/01/14 11:30:02;;;;;;;7.78;5.00;;;;;;;12.14;48.49;96273.00;6155954;23;20088;-25
2024/01/14 11:45:55;;;;;;;9.00;5.20;;;;;;;11.98;48.65;96256.88;6155975;23;20024;-25
2024/01/14 11:58:44;;;;;;;8.35;4.90;;;;;;;12.05;49.13;96213.13;6156004;23;20044;-25
2024/01/14 12:14:38;;;;;;;8.25;5.03;;;;;;;12.11;49.08;96212.13;6155876;23;20020;-25
2024/01/14 12:30:34;;;;;;;14.00;7.70;;;;;;;12.21;48.90;96180.34;6155702;23;20497;-25
2024/01/14 13:01:14;;;;;;;17.92;8.40;;;;;;;12.08;49.51;96128.00;6155439;23;20113;-25
2024/01/14 13:03:40;;;;;;;14.38;7.53;;;;;;;12.04;50.12;96138.22;6129337;23;20014;-25
2024/01/14 13:16:11;;;;;;;19.70;12.27;;;;;;;12.11;49.89;96121.69;6155616;23;20725;-25
2024/01/14 13:18:36;;;;;;;15.75;9.93;;;;;;;12.18;49.75;96110.53;6155062;23;20002;-25
2024/01/14 13:31:07;;;;;;;13.48;8.82;;;;;;;12.21;50.20;96102.25;6155168;23;20328;-25
2024/01/14 13:47:01;;;;;;;20.27;11.15;;;;;;;12.12;50.26;96080.44;6154511;23;20152;-25
2024/01/14 14:00:11;;;;;;;31.45;17.70;;;;;;;12.14;50.55;96090.88;6157348;23;20450;-25
2024/01/14 14:16:04;;;;;;;31.50;17.48;;;;;;;12.21;50.61;96071.59;6156680;23;20037;-25
2024/01/14 14:31:55;;;;;;;20.70;11.60;;;;;;;12.15;51.30;96062.47;6156622;23;20068;-25
2024/01/14 15:01:41;;;;;;;20.92;11.48;;;;;;;12.07;52.66;96036.78;6156276;23;20157;-25
2024/01/14 15:17:33;;;;;;;51.95;27.80;;;;;;;12.03;53.09;96031.47;6156453;23;20139;-25
2024/01/14 15:33:26;;;;;;;32.13;18.20;;;;;;;12.07;52.96;96012.31;6156145;23;20020;-25
2024/01/14 15:46:21;;;;;;;17.02;9.45;;;;;;;12.35;52.60;96013.97;6155446;23;20035;-25
2024/01/14 16:02:14;;;;;;;58.53;26.35;;;;;;;12.13;53.33;95996.94;6126633;23;20029;-25
2024/01/14 16:18:06;;;;;;;43.20;21.70;;;;;;;12.43;53.69;95998.88;6126268;23;20021;-25
2024/01/14 16:34:02;;;;;;;53.25;29.35;;;;;;;12.25;54.02;95963.44;6126258;23;20068;-25
2024/01/14 16:46:57;;;;;;;28.15;16.48;;;;;;;12.50;53.81;95954.31;6127991;23;20430;-25
2024/01/14 17:02:50;;;;;;;20.58;10.15;;;;;;;12.43;54.96;95943.72;6125571;23;20017;-25
2024/01/14 17:18:44;;;;;;;39.38;23.38;;;;;;;12.40;56.46;95936.47;6126004;23;20101;-25
2024/01/14 17:48:03;;;;;;;14.20;10.20;;;;;;;12.36;57.58;95909.44;6137748;23;20028;-25
2024/01/14 18:03:57;;;;;;;31.63;18.65;;;;;;;12.30;60.25;95888.69;6155317;23;20017;-25
2024/01/14 18:19:49;;;;;;;17.83;9.95;;;;;;;12.14;62.72;95881.56;6154874;23;20016;-25
2024/01/14 18:33:09;;;;;;;65.20;33.72;;;;;;;12.36;62.74;95887.66;6154826;23;20060;-25
2024/01/14 18:49:02;;;;;;;40.92;22.65;;;;;;;12.27;64.47;95873.28;6155588;23;20056;-25
2024/01/14 19:04:54;;;;;;;21.73;13.80;;;;;;;12.36;64.71;95849.59;6156186;23;20040;-25
2024/01/14 19:34:13;;;;;;;13.13;7.78;;;;;;;12.32;66.60;95826.47;6156149;23;20017;-25
2024/01/14 19:50:06;;;;;;;8.35;5.93;;;;;;;12.24;67.56;95812.41;6155141;23;20080;-25
2024/01/14 20:05:58;;;;;;;10.80;7.05;;;;;;;12.19;68.70;95794.00;6156124;23;20067;-25
2024/01/14 20:08:23;;;;;;;14.75;9.05;;;;;;;12.34;67.82;95786.75;6156148;23;20048;-24
2024/01/14 20:20:54;;;;;;;12.07;7.80;;;;;;;12.30;69.16;95791.59;6156209;23;20048;-25
2024/01/14 20:50:12;;;;;;;6.10;3.63;;;;;;;12.17;69.38;95761.81;6154601;23;20031;-25
2024/01/14 21:06:07;;;;;;;8.77;4.57;;;;;;;12.37;68.74;95753.19;6155405;23;20072;-25
2024/01/14 21:22:03;;;;;;;4.50;2.33;;;;;;;12.14;69.69;95732.81;6155056;23;20059;-25
2024/01/14 21:35:10;;;;;;;3.05;2.00;;;;;;;12.16;70.18;95710.63;6155512;23;20015;-25
2024/01/14 21:51:02;;;;;;;2.40;1.75;;;;;;;12.16;70.67;95688.88;6154047;23;20489;-25
2024/01/14 21:53:31;;;;;;;2.15;1.45;;;;;;;12.24;70.06;95690.81;6155197;23;20010;-25
2024/01/14 22:06:05;;;;;;;3.63;1.52;;;;;;;12.22;70.73;95681.63;6155187;23;20112;-25
2024/01/14 22:22:00;;;;;;;3.63;1.33;;;;;;;12.33;69.61;95665.59;6156830;23;20100;-25
2024/01/14 22:51:19;;;;;;;1.90;0.82;;;;;;;12.35;69.79;95625.13;6155738;23;20033;-25
2024/01/14 23:07:11;;;;;;;1.85;0.80;;;;;;;12.07;71.67;95601.91;6156732;23;20099;-25
2024/01/14 23:23:04;;;;;;;1.90;0.80;;;;;;;12.12;70.70;95563.25;6156243;23;20129;-25
2024/01/14 23:52:23;;;;;;;2.08;0.80;;;;;;;12.26;70.69;95535.41;6154869;23;20057;-25
